createdAt,value
2019-03-05T00:01:04.920Z,76.61
2019-03-05T00:03:34.167Z,79.07
2019-03-05T00:06:03.455Z,79.69
2019-03-05T00:08:33.062Z,79.53
2019-03-05T00:11:02.324Z,80.19
2019-03-05T00:13:33.997Z,80.69
2019-03-05T00:16:03.254Z,80.57
2019-03-05T00:18:32.495Z,80.98
2019-03-05T00:21:01.865Z,81.47
2019-03-05T00:23:49.905Z,81.43
2019-03-05T00:26:21.866Z,81.34
2019-03-05T00:29:06.267Z,82.12
2019-03-05T00:31:37.498Z,81.94
2019-03-05T00:34:43.456Z,81.44
2019-03-05T00:37:44.210Z,81.71
2019-03-05T00:40:36.682Z,82.00
2019-03-05T00:43:12.194Z,82.41
2019-03-05T00:46:10.485Z,82.28
2019-03-05T00:49:29.933Z,81.88
2019-03-05T00:52:09.871Z,82.51
2019-03-05T00:55:17.396Z,83.39
2019-03-05T00:58:29.659Z,83.79
2019-03-05T01:01:11.794Z,85.08
2019-03-05T01:04:03.422Z,85.46
2019-03-05T01:06:33.099Z,84.96
2019-03-05T01:09:02.343Z,84.90
2019-03-05T01:11:31.580Z,85.77
2019-03-05T01:14:01.386Z,85.31
2019-03-05T01:16:32.734Z,85.59
2019-03-05T01:19:01.999Z,86.52
2019-03-05T01:21:31.209Z,87.43
2019-03-05T01:24:00.604Z,88.74
2019-03-05T01:26:29.836Z,88.99
2019-03-05T01:28:59.051Z,89.45
2019-03-05T01:31:50.195Z,88.68
2019-03-05T01:34:24.260Z,88.76
2019-03-05T01:36:57.488Z,89.04
2019-03-05T01:39:34.430Z,87.85
2019-03-05T01:42:03.935Z,87.53
2019-03-05T01:44:33.222Z,87.30
2019-03-05T01:47:02.512Z,86.58
2019-03-05T01:49:31.796Z,86.28
2019-03-05T01:52:01.017Z,85.46
2019-03-05T01:54:30.598Z,84.85
2019-03-05T01:56:59.838Z,85.27
2019-03-05T01:59:29.907Z,84.06
2019-03-05T02:01:59.206Z,84.12
2019-03-05T02:04:30.010Z,83.79
2019-03-05T02:06:59.315Z,82.93
2019-03-05T02:09:28.541Z,81.90
2019-03-05T02:11:57.842Z,81.70
2019-03-05T02:14:27.052Z,81.07
2019-03-05T02:16:56.678Z,80.66
2019-03-05T02:19:38.803Z,80.54
2019-03-05T02:22:11.105Z,81.31
2019-03-05T02:25:25.111Z,79.72
2019-03-05T02:28:24.087Z,79.92
2019-03-05T02:31:27.329Z,78.75
2019-03-05T02:34:21.193Z,79.01
2019-03-05T02:37:09.761Z,78.77
2019-03-05T02:40:17.170Z,78.03
2019-03-05T02:43:17.485Z,77.55
2019-03-05T02:45:59.005Z,77.46
2019-03-05T02:48:49.704Z,77.24
2019-03-05T02:51:36.826Z,76.67
2019-03-05T02:55:05.504Z,76.07
2019-03-05T02:57:33.325Z,75.62
2019-03-05T03:00:02.641Z,76.23
2019-03-05T03:02:45.951Z,75.69
2019-03-05T03:05:34.348Z,75.99
2019-03-05T03:08:03.415Z,75.57
2019-03-05T03:10:32.687Z,75.71
2019-03-05T03:13:03.229Z,75.59
2019-03-05T03:15:32.448Z,75.33
2019-03-05T03:18:02.011Z,75.04
2019-03-05T03:20:31.236Z,75.35
2019-03-05T03:23:00.481Z,75.11
2019-03-05T03:25:29.702Z,75.74
2019-03-05T03:27:59.270Z,75.64
2019-03-05T03:30:30.539Z,75.82
2019-03-05T03:32:59.796Z,76.32
2019-03-05T03:35:30.689Z,76.00
2019-03-05T03:37:59.941Z,76.11
2019-03-05T03:40:29.158Z,75.72
2019-03-05T03:42:58.603Z,75.66
2019-03-05T03:45:28.369Z,75.78
2019-03-05T03:47:57.621Z,76.06
2019-03-05T03:50:26.887Z,76.25
2019-03-05T03:52:56.194Z,76.71
2019-03-05T03:55:25.713Z,76.61
2019-03-05T03:57:54.952Z,76.83
2019-03-05T04:00:25.354Z,76.79
2019-03-05T04:02:55.583Z,76.99
2019-03-05T04:05:25.447Z,77.06
2019-03-05T04:07:54.711Z,77.04
2019-03-05T04:10:23.962Z,76.98
2019-03-05T04:12:53.490Z,77.20
2019-03-05T04:15:23.993Z,77.19
2019-03-05T04:17:53.307Z,77.34
2019-03-05T04:20:44.525Z,77.33
2019-03-05T04:23:13.758Z,77.56
2019-03-05T04:25:42.986Z,77.89
2019-03-05T04:28:12.231Z,77.95
2019-03-05T04:30:41.451Z,77.99
2019-03-05T04:33:10.692Z,77.88
2019-03-05T04:35:39.917Z,78.00
2019-03-05T04:38:09.162Z,78.16
2019-03-05T04:40:39.302Z,78.21
2019-03-05T04:43:08.577Z,78.31
2019-03-05T04:46:15.453Z,78.22
2019-03-05T04:48:46.386Z,78.21
2019-03-05T04:51:22.911Z,78.60
2019-03-05T04:53:52.155Z,78.36
2019-03-05T04:56:22.563Z,78.74
2019-03-05T04:58:51.808Z,78.67
2019-03-05T05:01:21.027Z,78.36
2019-03-05T05:03:51.980Z,77.67
2019-03-05T05:06:21.997Z,77.58
2019-03-05T05:08:51.438Z,77.15
2019-03-05T05:11:20.698Z,77.31
2019-03-05T05:13:49.980Z,77.30
2019-03-05T05:16:19.194Z,77.35
2019-03-05T05:18:48.522Z,77.53
2019-03-05T05:21:17.758Z,77.57
2019-03-05T05:23:47.347Z,77.61
2019-03-05T05:26:17.830Z,77.33
2019-03-05T05:28:47.346Z,77.48
2019-03-05T05:31:16.710Z,77.59
2019-03-05T05:33:45.971Z,77.86
2019-03-05T05:36:15.368Z,77.74
2019-03-05T05:38:44.578Z,77.82
2019-03-05T05:41:13.818Z,77.93
2019-03-05T05:43:43.045Z,78.01
2019-03-05T05:46:13.399Z,78.13
2019-03-05T05:48:42.734Z,77.75
2019-03-05T05:51:11.986Z,77.42
2019-03-05T05:53:42.381Z,77.53
2019-03-05T05:56:11.650Z,77.36
2019-03-05T05:58:43.168Z,77.13
2019-03-05T06:01:13.895Z,76.86
2019-03-05T06:03:44.283Z,76.65
2019-03-05T06:06:13.528Z,76.49
2019-03-05T06:08:42.756Z,76.48
2019-03-05T06:11:13.044Z,76.40
2019-03-05T06:13:42.305Z,76.30
2019-03-05T06:16:11.551Z,76.44
2019-03-05T06:18:42.045Z,75.69
2019-03-05T06:21:11.281Z,75.48
2019-03-05T06:23:40.532Z,75.43
2019-03-05T06:26:12.091Z,74.93
2019-03-05T06:28:41.311Z,74.43
2019-03-05T06:31:10.579Z,74.17
2019-03-05T06:33:42.274Z,73.94
2019-03-05T06:36:11.518Z,73.68
2019-03-05T06:38:41.152Z,73.69
2019-03-05T06:41:10.411Z,73.78
2019-03-05T06:43:41.088Z,73.73
2019-03-05T06:46:10.326Z,73.43
2019-03-05T06:48:39.542Z,73.17
2019-03-05T06:51:08.775Z,73.43
2019-03-05T06:53:37.993Z,73.36
2019-03-05T06:56:07.235Z,73.12
2019-03-05T06:58:36.449Z,72.98
2019-03-05T07:01:07.013Z,73.08
2019-03-05T07:03:36.297Z,74.21
2019-03-05T07:06:41.255Z,74.67
2019-03-05T07:09:21.112Z,74.03
2019-03-05T07:12:15.079Z,69.01
2019-03-05T07:15:20.014Z,66.78
2019-03-05T07:17:53.818Z,67.44
2019-03-05T07:20:46.885Z,68.55
2019-03-05T07:23:27.618Z,66.28
2019-03-05T07:25:56.835Z,67.18
2019-03-05T07:28:26.106Z,69.33
2019-03-05T07:30:55.366Z,69.88
2019-03-05T07:33:24.614Z,71.30
2019-03-05T07:35:53.867Z,71.49
2019-03-05T07:38:23.107Z,72.31
2019-03-05T07:40:53.101Z,72.52
2019-03-05T07:43:22.655Z,73.08
2019-03-05T07:45:51.901Z,72.92
2019-03-05T07:48:21.147Z,73.57
2019-03-05T07:50:50.375Z,73.02
2019-03-05T07:53:19.622Z,73.77
2019-03-05T07:55:48.899Z,73.46
2019-03-05T07:58:18.968Z,73.96
2019-03-05T08:00:48.187Z,73.80
2019-03-05T08:03:17.415Z,74.77
2019-03-05T08:05:49.809Z,74.52
2019-03-05T08:08:54.716Z,73.08
2019-03-05T08:11:25.060Z,72.29
2019-03-05T08:14:38.664Z,72.89
2019-03-05T08:17:08.295Z,71.11
2019-03-05T08:19:37.557Z,70.01
2019-03-05T08:22:08.968Z,69.71
2019-03-05T08:24:38.255Z,67.17
2019-03-05T08:27:07.517Z,67.05
2019-03-05T08:29:37.658Z,66.28
2019-03-05T08:32:06.870Z,67.20
2019-03-05T08:34:36.111Z,66.33
2019-03-05T08:37:05.349Z,65.38
2019-03-05T08:39:34.898Z,66.14
2019-03-05T08:42:04.523Z,66.79
2019-03-05T08:44:33.966Z,65.76
2019-03-05T08:47:04.034Z,65.00
2019-03-05T08:49:33.451Z,65.13
2019-03-05T08:52:03.449Z,63.97
2019-03-05T08:54:32.715Z,63.12
2019-03-05T08:57:01.932Z,55.95
2019-03-05T08:59:32.662Z,49.55
2019-03-05T09:02:02.229Z,46.95
2019-03-05T09:04:31.469Z,47.13
2019-03-05T09:07:00.710Z,45.95
2019-03-05T09:09:30.374Z,43.72
2019-03-05T09:11:59.832Z,44.25
2019-03-05T09:14:31.311Z,47.95
2019-03-05T09:17:00.528Z,48.12
2019-03-05T09:19:30.157Z,47.37
2019-03-05T09:21:59.380Z,52.40
2019-03-05T09:24:28.629Z,53.55
2019-03-05T09:26:57.848Z,54.05
2019-03-05T09:29:27.132Z,57.11
2019-03-05T09:31:56.370Z,57.93
2019-03-05T09:34:25.845Z,58.61
2019-03-05T09:36:55.116Z,59.16
2019-03-05T09:39:24.377Z,59.73
2019-03-05T09:41:53.632Z,58.99
2019-03-05T09:44:24.804Z,57.96
2019-03-05T09:46:54.069Z,59.32
2019-03-05T09:49:23.309Z,60.67
2019-03-05T09:51:52.597Z,59.86
2019-03-05T09:54:21.849Z,60.00
2019-03-05T09:56:51.063Z,59.81
2019-03-05T09:59:20.291Z,58.51
2019-03-05T10:01:53.760Z,58.17
2019-03-05T10:04:23.497Z,58.48
2019-03-05T10:06:52.709Z,57.25
2019-03-05T10:09:25.861Z,57.30
2019-03-05T10:11:56.816Z,56.38
2019-03-05T10:14:25.963Z,54.61
2019-03-05T10:16:55.192Z,55.26
2019-03-05T10:19:24.447Z,55.01
2019-03-05T10:21:53.665Z,54.77
2019-03-05T10:24:22.925Z,55.79
2019-03-05T10:26:52.467Z,55.14
2019-03-05T10:29:21.955Z,54.50
2019-03-05T10:31:51.471Z,54.79
2019-03-05T10:34:20.720Z,54.62
2019-03-05T10:36:54.474Z,54.72
2019-03-05T10:39:30.915Z,55.42
2019-03-05T10:41:57.832Z,55.33
2019-03-05T10:44:27.874Z,53.46
2019-03-05T10:46:58.346Z,52.97
2019-03-05T10:49:27.920Z,54.49
2019-03-05T10:51:58.920Z,53.97
2019-03-05T10:54:28.174Z,52.31
2019-03-05T10:56:57.439Z,49.35
2019-03-05T10:59:27.419Z,49.06
2019-03-05T11:01:57.819Z,49.92
2019-03-05T11:04:27.044Z,50.41
2019-03-05T11:06:56.773Z,47.61
2019-03-05T11:09:33.124Z,47.54
2019-03-05T11:12:03.456Z,48.19
2019-03-05T11:14:35.676Z,48.26
2019-03-05T11:17:05.031Z,45.44
2019-03-05T11:19:34.464Z,44.09
2019-03-05T11:22:03.749Z,43.95
2019-03-05T11:24:32.974Z,45.34
2019-03-05T11:27:03.437Z,46.04
2019-03-05T11:29:32.686Z,44.64
2019-03-05T11:32:03.457Z,43.18
2019-03-05T11:34:32.752Z,42.12
2019-03-05T11:37:02.009Z,42.03
2019-03-05T11:39:31.242Z,40.73
2019-03-05T11:42:00.484Z,40.14
2019-03-05T11:44:29.704Z,42.13
2019-03-05T11:46:58.961Z,40.58
2019-03-05T11:49:28.200Z,40.36
2019-03-05T11:51:59.344Z,40.81
2019-03-05T11:54:28.605Z,40.26
2019-03-05T11:56:57.857Z,39.74
2019-03-05T11:59:27.308Z,41.36
2019-03-05T12:01:56.562Z,42.76
2019-03-05T12:04:26.113Z,43.73
2019-03-05T12:06:57.957Z,41.74
2019-03-05T12:09:27.473Z,43.58
2019-03-05T12:11:56.838Z,45.76
2019-03-05T12:14:26.417Z,44.97
2019-03-05T12:16:56.018Z,46.04
2019-03-05T12:19:25.256Z,47.08
2019-03-05T12:21:54.502Z,45.24
2019-03-05T12:24:24.319Z,44.99
2019-03-05T12:26:54.823Z,44.12
2019-03-05T12:29:24.053Z,40.50
2019-03-05T12:31:53.303Z,41.94
2019-03-05T12:34:23.813Z,41.22
2019-03-05T12:36:54.678Z,42.17
2019-03-05T12:39:23.915Z,44.89
2019-03-05T12:41:53.209Z,43.83
2019-03-05T12:44:22.802Z,43.22
2019-03-05T12:46:52.068Z,43.68
2019-03-05T12:49:21.308Z,43.76
2019-03-05T12:51:50.560Z,45.12
2019-03-05T12:54:19.801Z,43.10
2019-03-05T12:56:50.274Z,45.20
2019-03-05T12:59:19.491Z,44.66
2019-03-05T13:01:48.747Z,44.77
2019-03-05T13:04:17.991Z,47.19
2019-03-05T13:06:47.218Z,48.00
2019-03-05T13:09:19.549Z,47.89
2019-03-05T13:11:49.822Z,43.99
2019-03-05T13:14:20.114Z,45.55
2019-03-05T13:16:50.768Z,45.68
2019-03-05T13:19:21.597Z,45.89
2019-03-05T13:21:50.819Z,45.41
2019-03-05T13:24:20.078Z,45.36
2019-03-05T13:26:49.290Z,45.14
2019-03-05T13:29:20.528Z,43.65
2019-03-05T13:31:49.915Z,44.20
2019-03-05T13:34:19.161Z,45.78
2019-03-05T13:36:50.656Z,45.74
2019-03-05T13:39:22.303Z,45.01
2019-03-05T13:41:53.830Z,44.86
2019-03-05T13:44:34.934Z,45.23
2019-03-05T13:47:06.337Z,44.65
2019-03-05T13:50:08.487Z,44.62
2019-03-05T13:53:14.753Z,44.34
2019-03-05T13:56:44.694Z,44.59
2019-03-05T13:59:35.475Z,44.79
2019-03-05T14:02:06.354Z,43.71
2019-03-05T14:04:57.284Z,42.12
2019-03-05T14:08:07.684Z,41.86
2019-03-05T14:10:36.909Z,42.16
2019-03-05T14:13:06.191Z,42.65
2019-03-05T14:15:36.243Z,43.78
2019-03-05T14:18:08.593Z,44.22
2019-03-05T14:20:38.195Z,44.45
2019-03-05T14:23:07.466Z,45.41
2019-03-05T14:25:36.878Z,46.18
2019-03-05T14:28:06.138Z,48.25
2019-03-05T14:30:35.778Z,48.20
2019-03-05T14:33:08.596Z,48.84
2019-03-05T14:35:37.985Z,49.27
2019-03-05T14:38:08.715Z,50.56
2019-03-05T14:40:38.410Z,51.22
2019-03-05T14:43:09.354Z,52.49
2019-03-05T14:45:38.905Z,52.74
2019-03-05T14:48:08.139Z,53.24
2019-03-05T14:50:37.982Z,54.11
2019-03-05T14:53:08.417Z,55.77
2019-03-05T14:55:37.685Z,56.75
2019-03-05T14:58:06.906Z,57.99
2019-03-05T15:00:36.181Z,58.67
2019-03-05T15:03:05.392Z,59.92
2019-03-05T15:05:35.454Z,59.76
2019-03-05T15:08:05.369Z,60.57
2019-03-05T15:10:35.149Z,60.87
2019-03-05T15:13:15.301Z,60.99
2019-03-05T15:15:35.399Z,61.01
2019-03-05T15:18:05.340Z,61.61
2019-03-05T15:20:34.760Z,61.39
2019-03-05T15:23:06.415Z,61.59
2019-03-05T15:25:35.791Z,62.04
2019-03-05T15:28:05.023Z,63.76
2019-03-05T15:30:34.737Z,64.42
2019-03-05T15:33:04.017Z,66.57
2019-03-05T15:35:33.261Z,69.71
2019-03-05T15:38:02.732Z,72.43
2019-03-05T15:40:32.501Z,74.45
2019-03-05T15:43:01.729Z,76.99
2019-03-05T15:45:30.985Z,77.09
2019-03-05T15:48:00.293Z,78.44
2019-03-05T15:50:30.090Z,78.15
2019-03-05T15:52:59.372Z,78.94
2019-03-05T15:55:29.780Z,79.45
2019-03-05T15:57:59.032Z,79.60
2019-03-05T16:00:30.148Z,80.81
2019-03-05T16:02:59.863Z,81.04
2019-03-05T16:05:29.555Z,82.05
2019-03-05T16:08:01.071Z,82.24
2019-03-05T16:10:29.742Z,83.03
2019-03-05T16:12:59.310Z,82.38
2019-03-05T16:15:28.581Z,82.67
2019-03-05T16:18:01.264Z,83.79
2019-03-05T16:20:30.060Z,84.06
2019-03-05T16:22:59.296Z,83.88
2019-03-05T16:25:31.146Z,83.54
2019-03-05T16:28:02.303Z,84.45
2019-03-05T16:31:00.083Z,85.28
2019-03-05T16:33:48.273Z,85.24
2019-03-05T16:36:30.809Z,85.83
2019-03-05T16:39:31.183Z,86.98
2019-03-05T16:42:20.602Z,86.92
2019-03-05T16:45:08.782Z,85.99
2019-03-05T16:48:00.264Z,86.19
2019-03-05T16:50:41.027Z,86.25
2019-03-05T16:53:27.832Z,85.36
2019-03-05T16:56:14.812Z,85.87
2019-03-05T16:59:18.216Z,85.63
2019-03-05T17:01:59.617Z,85.07
2019-03-05T17:05:02.951Z,85.70
2019-03-05T17:07:46.903Z,86.20
2019-03-05T17:10:38.039Z,85.84
2019-03-05T17:13:07.331Z,85.48
2019-03-05T17:15:36.551Z,85.90
2019-03-05T17:18:07.265Z,85.52
2019-03-05T17:20:36.490Z,85.99
2019-03-05T17:23:06.688Z,85.85
2019-03-05T17:25:35.906Z,86.09
2019-03-05T17:28:05.178Z,85.99
2019-03-05T17:30:34.395Z,86.10
2019-03-05T17:33:03.693Z,85.98
2019-03-05T17:35:33.306Z,85.57
2019-03-05T17:38:03.937Z,85.49
2019-03-05T17:40:33.165Z,85.33
2019-03-05T17:43:02.817Z,85.08
2019-03-05T17:45:32.086Z,84.95
2019-03-05T17:48:01.473Z,84.80
2019-03-05T17:50:30.688Z,84.42
2019-03-05T17:52:59.927Z,84.49
2019-03-05T17:55:29.176Z,84.27
2019-03-05T17:57:58.809Z,84.10
2019-03-05T18:00:30.362Z,84.50
2019-03-05T18:02:59.598Z,84.49
2019-03-05T18:05:28.841Z,84.86
2019-03-05T18:07:58.196Z,84.59
2019-03-05T18:10:27.712Z,84.70
2019-03-05T18:12:56.980Z,84.92
2019-03-05T18:15:28.971Z,84.57
2019-03-05T18:17:58.309Z,84.76
2019-03-05T18:20:27.537Z,85.17
2019-03-05T18:22:56.812Z,85.40
2019-03-05T18:25:26.084Z,85.51
2019-03-05T18:27:55.396Z,85.17
2019-03-05T18:30:24.877Z,85.17
2019-03-05T18:32:54.121Z,85.37
2019-03-05T18:35:23.605Z,85.44
2019-03-05T18:37:54.472Z,85.39
2019-03-05T18:40:25.815Z,85.18
2019-03-05T18:42:55.239Z,84.98
2019-03-05T18:45:25.641Z,84.61
2019-03-05T18:47:54.873Z,83.84
2019-03-05T18:50:24.449Z,83.68
2019-03-05T18:52:54.506Z,84.06
2019-03-05T18:55:23.982Z,83.82
2019-03-05T18:57:53.443Z,84.02
2019-03-05T19:00:23.646Z,84.33
2019-03-05T19:02:54.258Z,84.72
2019-03-05T19:05:23.904Z,84.96
2019-03-05T19:07:53.507Z,85.05
2019-03-05T19:10:26.152Z,85.21
2019-03-05T19:12:57.352Z,85.28
2019-03-05T19:15:26.731Z,85.57
2019-03-05T19:17:56.079Z,85.72
2019-03-05T19:20:25.356Z,85.35
2019-03-05T19:22:54.782Z,85.36
2019-03-05T19:25:25.984Z,85.27
2019-03-05T19:27:55.217Z,85.35
2019-03-05T19:30:27.362Z,85.38
2019-03-05T19:32:56.861Z,85.46
2019-03-05T19:35:26.103Z,85.35
2019-03-05T19:37:55.338Z,85.56
2019-03-05T19:40:26.926Z,85.81
2019-03-05T19:43:03.372Z,85.82
2019-03-05T19:45:32.994Z,85.96
2019-03-05T19:48:03.359Z,86.13
2019-03-05T19:50:32.597Z,86.08
2019-03-05T19:53:02.076Z,86.10
2019-03-05T19:55:31.532Z,86.22
2019-03-05T19:58:10.792Z,86.28
2019-03-05T20:00:46.978Z,86.00
2019-03-05T20:03:16.228Z,86.17
2019-03-05T20:05:46.805Z,85.97
2019-03-05T20:08:16.056Z,86.07
2019-03-05T20:10:45.303Z,85.87
2019-03-05T20:13:14.912Z,86.06
2019-03-05T20:15:44.183Z,86.06
2019-03-05T20:18:14.662Z,85.97
2019-03-05T20:20:43.866Z,85.92
2019-03-05T20:23:13.442Z,85.86
2019-03-05T20:25:42.729Z,85.65
2019-03-05T20:28:13.450Z,85.65
2019-03-05T20:30:42.731Z,85.30
2019-03-05T20:33:11.981Z,85.08
2019-03-05T20:35:41.227Z,85.14
2019-03-05T20:38:12.711Z,84.74
2019-03-05T20:40:41.961Z,84.82
2019-03-05T20:43:11.173Z,84.67
2019-03-05T20:45:40.447Z,85.02
2019-03-05T20:48:09.670Z,85.00
2019-03-05T20:50:38.916Z,84.38
2019-03-05T20:53:08.135Z,84.67
2019-03-05T20:55:37.421Z,85.13
2019-03-05T20:58:06.954Z,85.27
2019-03-05T21:00:37.252Z,85.33
2019-03-05T21:03:06.662Z,85.30
2019-03-05T21:05:42.382Z,84.82
2019-03-05T21:08:11.621Z,84.42
2019-03-05T21:10:41.097Z,84.07
2019-03-05T21:13:11.123Z,83.30
2019-03-05T21:15:41.104Z,83.27
2019-03-05T21:18:10.529Z,83.65
2019-03-05T21:20:39.758Z,84.30
2019-03-05T21:23:08.994Z,84.67
2019-03-05T21:25:38.228Z,84.66
2019-03-05T21:28:07.462Z,85.05
2019-03-05T21:30:36.982Z,84.67
2019-03-05T21:33:08.624Z,84.71
2019-03-05T21:35:39.679Z,84.78
2019-03-05T21:38:08.924Z,84.62
2019-03-05T21:40:38.149Z,84.28
2019-03-05T21:43:07.728Z,84.27
2019-03-05T21:45:40.602Z,84.09
2019-03-05T21:48:09.855Z,84.43
2019-03-05T21:50:39.073Z,83.87
2019-03-05T21:53:08.417Z,83.79
2019-03-05T21:55:40.682Z,83.96
2019-03-05T21:58:10.303Z,83.77
2019-03-05T22:00:39.852Z,83.77
2019-03-05T22:03:09.090Z,83.69
2019-03-05T22:05:38.338Z,83.69
2019-03-05T22:08:07.601Z,83.79
2019-03-05T22:10:37.165Z,83.72
2019-03-05T22:13:06.448Z,83.52
2019-03-05T22:15:38.257Z,83.42
2019-03-05T22:18:07.979Z,83.33
2019-03-05T22:20:37.192Z,83.01
2019-03-05T22:23:06.911Z,83.28
2019-03-05T22:25:36.138Z,83.70
2019-03-05T22:28:05.825Z,83.90
2019-03-05T22:30:35.068Z,83.97
2019-03-05T22:33:04.903Z,84.10
2019-03-05T22:35:34.146Z,84.16
2019-03-05T22:38:03.426Z,83.92
2019-03-05T22:40:32.768Z,84.24
2019-03-05T22:43:02.043Z,84.52
2019-03-05T22:45:33.443Z,84.86
2019-03-05T22:48:05.338Z,85.29
2019-03-05T22:50:34.581Z,85.43
2019-03-05T22:53:05.548Z,85.24
2019-03-05T22:55:35.466Z,85.39
2019-03-05T22:58:04.745Z,85.88
2019-03-05T23:01:11.855Z,85.94
2019-03-05T23:03:45.613Z,86.06
2019-03-05T23:06:15.410Z,85.82
2019-03-05T23:08:44.658Z,85.37
2019-03-05T23:11:13.872Z,84.93
2019-03-05T23:13:43.817Z,84.79
2019-03-05T23:16:13.435Z,84.55
2019-03-05T23:18:43.002Z,84.32
2019-03-05T23:21:12.631Z,84.07
2019-03-05T23:23:41.891Z,83.83
2019-03-05T23:26:11.363Z,83.49
2019-03-05T23:28:40.757Z,83.30
2019-03-05T23:31:12.010Z,83.12
2019-03-05T23:33:41.710Z,82.78
2019-03-05T23:36:11.159Z,82.55
2019-03-05T23:38:40.383Z,82.37
2019-03-05T23:41:09.633Z,82.34
2019-03-05T23:43:38.896Z,82.19
2019-03-05T23:46:08.140Z,82.20
2019-03-05T23:48:37.346Z,82.46
2019-03-05T23:51:07.833Z,82.56
2019-03-05T23:53:37.148Z,82.52
2019-03-05T23:56:07.674Z,82.77
2019-03-05T23:58:36.924Z,82.65
